sensor_id;sensor_type;location;lat;lon;timestamp;P1;durP1;ratioP1;P2;durP2;ratioP2
55931;SDS011;41837;55.700;37.984;2023-07-13T00:00:50;7.15;;;2.60;;
55931;SDS011;41837;55.700;37.984;2023-07-13T00:03:16;3.95;;;2.40;;
55931;SDS011;41837;55.700;37.984;2023-07-13T00:05:42;5.53;;;2.67;;
55931;SDS011;41837;55.700;37.984;2023-07-13T00:08:09;7.60;;;2.80;;
55931;SDS011;41837;55.700;37.984;2023-07-13T00:10:40;3.97;;;2.60;;
55931;SDS011;41837;55.700;37.984;2023-07-13T00:13:08;5.07;;;2.30;;
55931;SDS011;41837;55.700;37.984;2023-07-13T00:15:35;6.78;;;2.88;;
55931;SDS011;41837;55.700;37.984;2023-07-13T00:18:01;5.00;;;2.38;;
55931;SDS011;41837;55.700;37.984;2023-07-13T00:20:28;6.82;;;2.50;;
55931;SDS011;41837;55.700;37.984;2023-07-13T00:22:55;5.97;;;2.75;;
55931;SDS011;41837;55.700;37.984;2023-07-13T00:25:21;6.75;;;2.10;;
55931;SDS011;41837;55.700;37.984;2023-07-13T00:27:50;5.45;;;2.40;;
55931;SDS011;41837;55.700;37.984;2023-07-13T00:30:17;4.03;;;2.00;;
55931;SDS011;41837;55.700;37.984;2023-07-13T00:32:44;4.57;;;2.08;;
55931;SDS011;41837;55.700;37.984;2023-07-13T00:35:12;4.68;;;2.40;;
55931;SDS011;41837;55.700;37.984;2023-07-13T00:37:40;6.38;;;2.53;;
55931;SDS011;41837;55.700;37.984;2023-07-13T00:40:07;6.97;;;2.28;;
55931;SDS011;41837;55.700;37.984;2023-07-13T00:42:35;5.38;;;2.25;;
55931;SDS011;41837;55.700;37.984;2023-07-13T00:45:03;5.95;;;2.10;;
55931;SDS011;41837;55.700;37.984;2023-07-13T00:47:53;4.47;;;2.35;;
55931;SDS011;41837;55.700;37.984;2023-07-13T00:50:21;9.95;;;2.20;;
55931;SDS011;41837;55.700;37.984;2023-07-13T00:52:49;6.35;;;2.40;;
55931;SDS011;41837;55.700;37.984;2023-07-13T00:55:19;3.65;;;2.30;;
55931;SDS011;41837;55.700;37.984;2023-07-13T00:57:48;5.50;;;2.40;;
55931;SDS011;41837;55.700;37.984;2023-07-13T01:00:15;4.95;;;2.38;;
55931;SDS011;41837;55.700;37.984;2023-07-13T01:02:43;3.53;;;2.00;;
55931;SDS011;41837;55.700;37.984;2023-07-13T01:05:13;4.07;;;2.25;;
55931;SDS011;41837;55.700;37.984;2023-07-13T01:07:41;5.70;;;2.15;;
55931;SDS011;41837;55.700;37.984;2023-07-13T01:10:09;6.35;;;2.22;;
55931;SDS011;41837;55.700;37.984;2023-07-13T01:12:51;4.82;;;2.70;;
55931;SDS011;41837;55.700;37.984;2023-07-13T01:15:34;4.22;;;1.98;;
55931;SDS011;41837;55.700;37.984;2023-07-13T01:18:17;6.53;;;2.05;;
55931;SDS011;41837;55.700;37.984;2023-07-13T01:20:57;3.50;;;2.25;;
55931;SDS011;41837;55.700;37.984;2023-07-13T01:23:25;6.10;;;2.40;;
55931;SDS011;41837;55.700;37.984;2023-07-13T01:25:55;4.10;;;2.20;;
55931;SDS011;41837;55.700;37.984;2023-07-13T01:28:22;5.95;;;2.03;;
55931;SDS011;41837;55.700;37.984;2023-07-13T01:30:53;4.65;;;2.17;;
55931;SDS011;41837;55.700;37.984;2023-07-13T01:33:22;3.30;;;2.00;;
55931;SDS011;41837;55.700;37.984;2023-07-13T01:35:49;7.53;;;3.53;;
55931;SDS011;41837;55.700;37.984;2023-07-13T01:38:17;5.60;;;3.05;;
55931;SDS011;41837;55.700;37.984;2023-07-13T01:40:48;6.25;;;2.45;;
55931;SDS011;41837;55.700;37.984;2023-07-13T01:43:15;4.90;;;2.22;;
55931;SDS011;41837;55.700;37.984;2023-07-13T01:45:43;5.30;;;2.60;;
55931;SDS011;41837;55.700;37.984;2023-07-13T01:48:11;5.07;;;2.30;;
55931;SDS011;41837;55.700;37.984;2023-07-13T01:50:37;5.15;;;2.40;;
55931;SDS011;41837;55.700;37.984;2023-07-13T01:53:04;4.32;;;2.10;;
55931;SDS011;41837;55.700;37.984;2023-07-13T01:55:30;6.88;;;2.38;;
55931;SDS011;41837;55.700;37.984;2023-07-13T01:57:56;6.72;;;2.60;;
55931;SDS011;41837;55.700;37.984;2023-07-13T02:00:23;4.55;;;2.08;;
55931;SDS011;41837;55.700;37.984;2023-07-13T02:02:50;3.28;;;2.40;;
55931;SDS011;41837;55.700;37.984;2023-07-13T02:05:17;5.70;;;2.70;;
55931;SDS011;41837;55.700;37.984;2023-07-13T02:07:44;9.48;;;2.55;;
55931;SDS011;41837;55.700;37.984;2023-07-13T02:10:11;4.55;;;2.60;;
55931;SDS011;41837;55.700;37.984;2023-07-13T02:12:38;6.40;;;2.30;;
55931;SDS011;41837;55.700;37.984;2023-07-13T02:15:05;3.17;;;2.13;;
55931;SDS011;41837;55.700;37.984;2023-07-13T02:17:34;5.20;;;2.47;;
55931;SDS011;41837;55.700;37.984;2023-07-13T02:20:03;4.32;;;2.33;;
55931;SDS011;41837;55.700;37.984;2023-07-13T02:22:32;5.45;;;2.10;;
55931;SDS011;41837;55.700;37.984;2023-07-13T02:24:59;3.70;;;2.42;;
55931;SDS011;41837;55.700;37.984;2023-07-13T02:27:25;5.35;;;2.50;;
55931;SDS011;41837;55.700;37.984;2023-07-13T02:29:52;7.13;;;2.50;;
55931;SDS011;41837;55.700;37.984;2023-07-13T02:32:20;4.80;;;2.53;;
55931;SDS011;41837;55.700;37.984;2023-07-13T02:34:47;9.27;;;2.63;;
55931;SDS011;41837;55.700;37.984;2023-07-13T02:37:13;5.10;;;2.60;;
55931;SDS011;41837;55.700;37.984;2023-07-13T02:39:40;5.72;;;2.67;;
55931;SDS011;41837;55.700;37.984;2023-07-13T02:42:07;4.63;;;2.47;;
55931;SDS011;41837;55.700;37.984;2023-07-13T02:44:33;9.63;;;3.03;;
55931;SDS011;41837;55.700;37.984;2023-07-13T02:47:00;9.30;;;2.63;;
55931;SDS011;41837;55.700;37.984;2023-07-13T02:49:26;5.85;;;2.58;;
55931;SDS011;41837;55.700;37.984;2023-07-13T02:51:52;7.90;;;2.47;;
55931;SDS011;41837;55.700;37.984;2023-07-13T02:54:19;5.60;;;2.60;;
55931;SDS011;41837;55.700;37.984;2023-07-13T02:56:45;7.75;;;3.03;;
55931;SDS011;41837;55.700;37.984;2023-07-13T02:59:11;8.82;;;2.50;;
55931;SDS011;41837;55.700;37.984;2023-07-13T03:01:38;6.68;;;2.60;;
55931;SDS011;41837;55.700;37.984;2023-07-13T03:04:04;5.40;;;2.60;;
55931;SDS011;41837;55.700;37.984;2023-07-13T03:06:34;4.45;;;2.70;;
55931;SDS011;41837;55.700;37.984;2023-07-13T03:09:01;7.63;;;2.67;;
55931;SDS011;41837;55.700;37.984;2023-07-13T03:11:29;9.80;;;2.25;;
55931;SDS011;41837;55.700;37.984;2023-07-13T03:16:35;7.40;;;2.85;;
55931;SDS011;41837;55.700;37.984;2023-07-13T03:19:02;4.78;;;2.80;;
55931;SDS011;41837;55.700;37.984;2023-07-13T03:21:29;8.05;;;2.90;;
55931;SDS011;41837;55.700;37.984;2023-07-13T03:23:55;4.20;;;2.40;;
55931;SDS011;41837;55.700;37.984;2023-07-13T03:26:22;4.68;;;2.72;;
55931;SDS011;41837;55.700;37.984;2023-07-13T03:28:48;4.03;;;2.70;;
55931;SDS011;41837;55.700;37.984;2023-07-13T03:31:19;8.77;;;3.00;;
55931;SDS011;41837;55.700;37.984;2023-07-13T03:33:50;8.10;;;2.80;;
55931;SDS011;41837;55.700;37.984;2023-07-13T03:36:21;9.32;;;3.17;;
55931;SDS011;41837;55.700;37.984;2023-07-13T03:38:53;8.13;;;2.80;;
55931;SDS011;41837;55.700;37.984;2023-07-13T03:41:25;7.88;;;2.97;;
55931;SDS011;41837;55.700;37.984;2023-07-13T03:43:53;10.48;;;3.00;;
55931;SDS011;41837;55.700;37.984;2023-07-13T03:46:22;7.68;;;2.85;;
55931;SDS011;41837;55.700;37.984;2023-07-13T03:48:48;5.82;;;3.03;;
55931;SDS011;41837;55.700;37.984;2023-07-13T03:51:15;5.00;;;2.97;;
55931;SDS011;41837;55.700;37.984;2023-07-13T03:53:44;6.03;;;2.72;;
55931;SDS011;41837;55.700;37.984;2023-07-13T03:56:13;8.18;;;2.75;;
55931;SDS011;41837;55.700;37.984;2023-07-13T03:58:42;6.82;;;2.92;;
55931;SDS011;41837;55.700;37.984;2023-07-13T04:01:22;5.15;;;2.80;;
55931;SDS011;41837;55.700;37.984;2023-07-13T04:03:51;10.85;;;2.90;;
55931;SDS011;41837;55.700;37.984;2023-07-13T04:06:26;5.80;;;3.08;;
55931;SDS011;41837;55.700;37.984;2023-07-13T04:08:56;7.38;;;2.85;;
55931;SDS011;41837;55.700;37.984;2023-07-13T04:11:25;5.22;;;3.10;;
55931;SDS011;41837;55.700;37.984;2023-07-13T04:13:54;13.00;;;3.55;;
55931;SDS011;41837;55.700;37.984;2023-07-13T04:16:21;9.57;;;3.30;;
55931;SDS011;41837;55.700;37.984;2023-07-13T04:18:48;8.30;;;2.88;;
55931;SDS011;41837;55.700;37.984;2023-07-13T04:21:15;9.02;;;3.20;;
55931;SDS011;41837;55.700;37.984;2023-07-13T04:23:42;8.75;;;2.95;;
55931;SDS011;41837;55.700;37.984;2023-07-13T04:26:09;5.43;;;2.83;;
55931;SDS011;41837;55.700;37.984;2023-07-13T04:28:35;6.55;;;3.38;;
55931;SDS011;41837;55.700;37.984;2023-07-13T04:31:01;7.35;;;3.00;;
55931;SDS011;41837;55.700;37.984;2023-07-13T04:33:27;7.35;;;2.92;;
55931;SDS011;41837;55.700;37.984;2023-07-13T04:35:54;5.90;;;2.88;;
55931;SDS011;41837;55.700;37.984;2023-07-13T04:38:27;9.90;;;2.83;;
55931;SDS011;41837;55.700;37.984;2023-07-13T04:40:55;4.68;;;2.80;;
55931;SDS011;41837;55.700;37.984;2023-07-13T04:43:23;8.63;;;2.80;;
55931;SDS011;41837;55.700;37.984;2023-07-13T04:45:50;7.07;;;2.88;;
55931;SDS011;41837;55.700;37.984;2023-07-13T04:48:17;6.20;;;2.88;;
55931;SDS011;41837;55.700;37.984;2023-07-13T04:50:44;7.05;;;2.90;;
55931;SDS011;41837;55.700;37.984;2023-07-13T04:53:12;9.25;;;2.72;;
55931;SDS011;41837;55.700;37.984;2023-07-13T04:55:38;8.60;;;3.00;;
55931;SDS011;41837;55.700;37.984;2023-07-13T04:58:06;7.40;;;3.20;;
55931;SDS011;41837;55.700;37.984;2023-07-13T05:00:33;11.13;;;3.00;;
55931;SDS011;41837;55.700;37.984;2023-07-13T05:02:59;12.70;;;2.90;;
55931;SDS011;41837;55.700;37.984;2023-07-13T05:05:25;5.40;;;3.00;;
55931;SDS011;41837;55.700;37.984;2023-07-13T05:07:53;9.80;;;3.10;;
55931;SDS011;41837;55.700;37.984;2023-07-13T05:10:19;5.97;;;2.95;;
55931;SDS011;41837;55.700;37.984;2023-07-13T05:12:46;6.43;;;2.70;;
55931;SDS011;41837;55.700;37.984;2023-07-13T05:15:13;6.43;;;3.03;;
55931;SDS011;41837;55.700;37.984;2023-07-13T05:17:40;8.98;;;2.90;;
55931;SDS011;41837;55.700;37.984;2023-07-13T05:20:07;10.82;;;3.20;;
55931;SDS011;41837;55.700;37.984;2023-07-13T05:22:34;7.25;;;3.10;;
55931;SDS011;41837;55.700;37.984;2023-07-13T05:25:02;6.55;;;3.35;;
55931;SDS011;41837;55.700;37.984;2023-07-13T05:27:34;7.85;;;3.00;;
55931;SDS011;41837;55.700;37.984;2023-07-13T05:30:01;8.45;;;3.10;;
55931;SDS011;41837;55.700;37.984;2023-07-13T05:32:32;6.07;;;2.80;;
55931;SDS011;41837;55.700;37.984;2023-07-13T05:34:59;7.05;;;3.00;;
55931;SDS011;41837;55.700;37.984;2023-07-13T05:37:25;9.85;;;2.90;;
55931;SDS011;41837;55.700;37.984;2023-07-13T05:39:52;7.65;;;3.00;;
55931;SDS011;41837;55.700;37.984;2023-07-13T05:42:21;6.95;;;3.40;;
55931;SDS011;41837;55.700;37.984;2023-07-13T05:44:47;9.40;;;3.10;;
55931;SDS011;41837;55.700;37.984;2023-07-13T05:47:14;8.80;;;3.15;;
55931;SDS011;41837;55.700;37.984;2023-07-13T05:49:40;10.85;;;3.45;;
55931;SDS011;41837;55.700;37.984;2023-07-13T05:52:07;8.02;;;3.05;;
55931;SDS011;41837;55.700;37.984;2023-07-13T05:54:33;13.10;;;3.53;;
55931;SDS011;41837;55.700;37.984;2023-07-13T05:56:59;6.28;;;3.30;;
55931;SDS011;41837;55.700;37.984;2023-07-13T05:59:26;5.22;;;3.38;;
55931;SDS011;41837;55.700;37.984;2023-07-13T06:01:52;10.45;;;3.28;;
55931;SDS011;41837;55.700;37.984;2023-07-13T06:04:19;7.65;;;3.03;;
55931;SDS011;41837;55.700;37.984;2023-07-13T06:06:46;10.10;;;2.92;;
55931;SDS011;41837;55.700;37.984;2023-07-13T06:09:12;12.70;;;3.75;;
55931;SDS011;41837;55.700;37.984;2023-07-13T06:11:39;9.23;;;3.15;;
55931;SDS011;41837;55.700;37.984;2023-07-13T06:14:05;10.40;;;2.83;;
55931;SDS011;41837;55.700;37.984;2023-07-13T06:16:31;4.32;;;2.70;;
55931;SDS011;41837;55.700;37.984;2023-07-13T06:18:57;9.65;;;2.72;;
55931;SDS011;41837;55.700;37.984;2023-07-13T06:21:23;10.95;;;3.13;;
55931;SDS011;41837;55.700;37.984;2023-07-13T06:23:50;8.77;;;2.83;;
55931;SDS011;41837;55.700;37.984;2023-07-13T06:26:19;11.48;;;2.97;;
55931;SDS011;41837;55.700;37.984;2023-07-13T06:28:45;7.60;;;2.90;;
55931;SDS011;41837;55.700;37.984;2023-07-13T06:31:12;9.50;;;4.50;;
55931;SDS011;41837;55.700;37.984;2023-07-13T06:33:40;11.32;;;5.43;;
55931;SDS011;41837;55.700;37.984;2023-07-13T06:36:07;13.75;;;3.90;;
55931;SDS011;41837;55.700;37.984;2023-07-13T06:38:34;10.88;;;3.13;;
55931;SDS011;41837;55.700;37.984;2023-07-13T06:41:04;6.20;;;2.72;;
55931;SDS011;41837;55.700;37.984;2023-07-13T06:43:31;9.60;;;2.83;;
55931;SDS011;41837;55.700;37.984;2023-07-13T06:45:57;7.82;;;2.72;;
55931;SDS011;41837;55.700;37.984;2023-07-13T06:48:23;7.63;;;3.00;;
55931;SDS011;41837;55.700;37.984;2023-07-13T06:50:50;9.63;;;3.05;;
55931;SDS011;41837;55.700;37.984;2023-07-13T06:53:17;9.70;;;3.00;;
55931;SDS011;41837;55.700;37.984;2023-07-13T06:55:44;17.52;;;3.03;;
55931;SDS011;41837;55.700;37.984;2023-07-13T06:58:15;9.75;;;2.47;;
55931;SDS011;41837;55.700;37.984;2023-07-13T07:00:42;7.10;;;2.65;;
55931;SDS011;41837;55.700;37.984;2023-07-13T07:03:09;10.30;;;3.08;;
55931;SDS011;41837;55.700;37.984;2023-07-13T07:05:35;14.30;;;3.10;;
55931;SDS011;41837;55.700;37.984;2023-07-13T07:08:01;9.43;;;3.10;;
55931;SDS011;41837;55.700;37.984;2023-07-13T07:10:29;10.05;;;3.05;;
55931;SDS011;41837;55.700;37.984;2023-07-13T07:12:56;9.95;;;3.25;;
55931;SDS011;41837;55.700;37.984;2023-07-13T07:15:22;15.93;;;3.03;;
55931;SDS011;41837;55.700;37.984;2023-07-13T07:17:48;7.20;;;2.60;;
55931;SDS011;41837;55.700;37.984;2023-07-13T07:20:15;8.02;;;2.70;;
55931;SDS011;41837;55.700;37.984;2023-07-13T07:22:43;6.47;;;2.70;;
55931;SDS011;41837;55.700;37.984;2023-07-13T07:25:10;8.05;;;3.20;;
55931;SDS011;41837;55.700;37.984;2023-07-13T07:27:37;10.90;;;2.78;;
55931;SDS011;41837;55.700;37.984;2023-07-13T07:30:04;9.25;;;2.95;;
55931;SDS011;41837;55.700;37.984;2023-07-13T07:32:32;7.88;;;2.75;;
55931;SDS011;41837;55.700;37.984;2023-07-13T07:34:58;12.57;;;2.90;;
55931;SDS011;41837;55.700;37.984;2023-07-13T07:37:24;9.93;;;3.10;;
55931;SDS011;41837;55.700;37.984;2023-07-13T07:39:51;5.45;;;2.33;;
55931;SDS011;41837;55.700;37.984;2023-07-13T07:42:17;11.13;;;3.00;;
55931;SDS011;41837;55.700;37.984;2023-07-13T07:44:43;7.90;;;3.05;;
55931;SDS011;41837;55.700;37.984;2023-07-13T07:47:12;8.98;;;3.05;;
55931;SDS011;41837;55.700;37.984;2023-07-13T07:49:38;9.38;;;3.38;;
55931;SDS011;41837;55.700;37.984;2023-07-13T07:52:05;10.32;;;3.40;;
55931;SDS011;41837;55.700;37.984;2023-07-13T07:54:31;7.75;;;3.15;;
55931;SDS011;41837;55.700;37.984;2023-07-13T07:56:57;7.68;;;3.05;;
55931;SDS011;41837;55.700;37.984;2023-07-13T07:59:23;10.00;;;3.25;;
55931;SDS011;41837;55.700;37.984;2023-07-13T08:01:50;9.15;;;3.50;;
55931;SDS011;41837;55.700;37.984;2023-07-13T08:04:19;10.55;;;3.90;;
55931;SDS011;41837;55.700;37.984;2023-07-13T08:06:46;7.40;;;3.45;;
55931;SDS011;41837;55.700;37.984;2023-07-13T08:09:11;10.98;;;3.65;;
55931;SDS011;41837;55.700;37.984;2023-07-13T08:11:38;6.82;;;3.30;;
55931;SDS011;41837;55.700;37.984;2023-07-13T08:14:05;16.80;;;6.28;;
55931;SDS011;41837;55.700;37.984;2023-07-13T08:16:31;6.93;;;3.90;;
55931;SDS011;41837;55.700;37.984;2023-07-13T08:18:58;7.65;;;3.97;;
55931;SDS011;41837;55.700;37.984;2023-07-13T08:21:24;12.25;;;3.53;;
55931;SDS011;41837;55.700;37.984;2023-07-13T08:23:51;9.50;;;3.72;;
55931;SDS011;41837;55.700;37.984;2023-07-13T08:26:17;16.48;;;4.20;;
55931;SDS011;41837;55.700;37.984;2023-07-13T08:28:43;11.82;;;4.45;;
55931;SDS011;41837;55.700;37.984;2023-07-13T08:31:09;9.10;;;3.88;;
55931;SDS011;41837;55.700;37.984;2023-07-13T08:33:36;10.02;;;3.55;;
55931;SDS011;41837;55.700;37.984;2023-07-13T08:36:02;15.90;;;3.60;;
55931;SDS011;41837;55.700;37.984;2023-07-13T08:38:31;8.05;;;3.08;;
55931;SDS011;41837;55.700;37.984;2023-07-13T08:40:57;9.02;;;3.60;;
55931;SDS011;41837;55.700;37.984;2023-07-13T08:43:30;8.13;;;3.58;;
55931;SDS011;41837;55.700;37.984;2023-07-13T08:46:05;9.15;;;3.33;;
55931;SDS011;41837;55.700;37.984;2023-07-13T08:48:45;8.45;;;4.35;;
55931;SDS011;41837;55.700;37.984;2023-07-13T08:54:05;13.18;;;6.03;;
55931;SDS011;41837;55.700;37.984;2023-07-13T08:56:55;15.95;;;6.60;;
55931;SDS011;41837;55.700;37.984;2023-07-13T08:59:26;14.02;;;5.53;;
55931;SDS011;41837;55.700;37.984;2023-07-13T09:04:34;10.90;;;5.85;;
55931;SDS011;41837;55.700;37.984;2023-07-13T09:07:05;13.00;;;4.85;;
55931;SDS011;41837;55.700;37.984;2023-07-13T09:15:40;7.97;;;3.45;;
55931;SDS011;41837;55.700;37.984;2023-07-13T09:21:03;5.55;;;2.95;;
55931;SDS011;41837;55.700;37.984;2023-07-13T09:23:42;6.72;;;3.42;;
55931;SDS011;41837;55.700;37.984;2023-07-13T09:26:19;7.13;;;3.13;;
55931;SDS011;41837;55.700;37.984;2023-07-13T09:28:47;6.95;;;2.95;;
55931;SDS011;41837;55.700;37.984;2023-07-13T09:31:23;8.68;;;3.30;;
55931;SDS011;41837;55.700;37.984;2023-07-13T09:33:55;6.22;;;2.80;;
55931;SDS011;41837;55.700;37.984;2023-07-13T09:36:25;7.63;;;3.00;;
55931;SDS011;41837;55.700;37.984;2023-07-13T09:39:02;8.00;;;3.33;;
55931;SDS011;41837;55.700;37.984;2023-07-13T09:44:12;6.55;;;3.50;;
55931;SDS011;41837;55.700;37.984;2023-07-13T09:46:44;10.15;;;3.67;;
55931;SDS011;41837;55.700;37.984;2023-07-13T09:49:13;13.48;;;3.33;;
55931;SDS011;41837;55.700;37.984;2023-07-13T09:51:42;10.07;;;3.63;;
55931;SDS011;41837;55.700;37.984;2023-07-13T09:54:20;9.75;;;3.47;;
55931;SDS011;41837;55.700;37.984;2023-07-13T09:56:57;7.10;;;3.20;;
55931;SDS011;41837;55.700;37.984;2023-07-13T09:59:29;7.80;;;3.67;;
55931;SDS011;41837;55.700;37.984;2023-07-13T10:02:00;10.02;;;3.65;;
55931;SDS011;41837;55.700;37.984;2023-07-13T10:04:33;7.40;;;3.53;;
55931;SDS011;41837;55.700;37.984;2023-07-13T10:07:12;6.60;;;3.30;;
55931;SDS011;41837;55.700;37.984;2023-07-13T10:09:41;9.20;;;3.58;;
55931;SDS011;41837;55.700;37.984;2023-07-13T10:12:14;12.57;;;4.13;;
55931;SDS011;41837;55.700;37.984;2023-07-13T10:14:42;9.48;;;4.20;;
55931;SDS011;41837;55.700;37.984;2023-07-13T10:17:10;8.63;;;3.63;;
55931;SDS011;41837;55.700;37.984;2023-07-13T10:19:40;6.18;;;3.90;;
55931;SDS011;41837;55.700;37.984;2023-07-13T10:22:21;7.80;;;3.55;;
55931;SDS011;41837;55.700;37.984;2023-07-13T10:24:50;11.07;;;3.30;;
55931;SDS011;41837;55.700;37.984;2023-07-13T10:27:19;10.98;;;3.63;;
55931;SDS011;41837;55.700;37.984;2023-07-13T10:32:21;11.00;;;3.42;;
55931;SDS011;41837;55.700;37.984;2023-07-13T10:34:50;8.55;;;3.72;;
55931;SDS011;41837;55.700;37.984;2023-07-13T10:37:25;11.93;;;3.63;;
55931;SDS011;41837;55.700;37.984;2023-07-13T10:39:55;9.25;;;3.38;;
55931;SDS011;41837;55.700;37.984;2023-07-13T10:42:28;8.65;;;3.15;;
55931;SDS011;41837;55.700;37.984;2023-07-13T10:44:58;7.55;;;3.78;;
55931;SDS011;41837;55.700;37.984;2023-07-13T10:47:24;8.07;;;4.22;;
55931;SDS011;41837;55.700;37.984;2023-07-13T10:49:54;6.32;;;4.00;;
55931;SDS011;41837;55.700;37.984;2023-07-13T10:55:30;8.32;;;3.78;;
55931;SDS011;41837;55.700;37.984;2023-07-13T10:58:12;5.90;;;3.13;;
55931;SDS011;41837;55.700;37.984;2023-07-13T11:00:48;6.78;;;3.47;;
55931;SDS011;41837;55.700;37.984;2023-07-13T11:03:16;7.20;;;3.10;;
55931;SDS011;41837;55.700;37.984;2023-07-13T11:05:47;5.32;;;3.70;;
55931;SDS011;41837;55.700;37.984;2023-07-13T11:08:23;9.57;;;3.45;;
55931;SDS011;41837;55.700;37.984;2023-07-13T11:11:32;8.52;;;3.67;;
55931;SDS011;41837;55.700;37.984;2023-07-13T11:18:45;7.63;;;3.33;;
55931;SDS011;41837;55.700;37.984;2023-07-13T11:21:25;7.18;;;3.72;;
55931;SDS011;41837;55.700;37.984;2023-07-13T11:23:54;11.65;;;4.20;;
55931;SDS011;41837;55.700;37.984;2023-07-13T11:31:41;7.25;;;4.25;;
55931;SDS011;41837;55.700;37.984;2023-07-13T11:34:13;6.20;;;3.70;;
55931;SDS011;41837;55.700;37.984;2023-07-13T11:36:44;6.75;;;3.97;;
55931;SDS011;41837;55.700;37.984;2023-07-13T11:39:13;9.48;;;4.43;;
55931;SDS011;41837;55.700;37.984;2023-07-13T11:42:08;7.38;;;4.65;;
55931;SDS011;41837;55.700;37.984;2023-07-13T11:44:57;7.47;;;3.55;;
55931;SDS011;41837;55.700;37.984;2023-07-13T11:47:25;8.60;;;3.72;;
55931;SDS011;41837;55.700;37.984;2023-07-13T11:49:54;9.00;;;4.05;;
55931;SDS011;41837;55.700;37.984;2023-07-13T11:52:31;6.22;;;4.03;;
55931;SDS011;41837;55.700;37.984;2023-07-13T11:55:03;6.63;;;4.03;;
55931;SDS011;41837;55.700;37.984;2023-07-13T11:57:53;7.63;;;4.00;;
55931;SDS011;41837;55.700;37.984;2023-07-13T12:00:27;8.30;;;4.13;;
55931;SDS011;41837;55.700;37.984;2023-07-13T12:02:56;9.40;;;4.40;;
55931;SDS011;41837;55.700;37.984;2023-07-13T12:05:24;12.48;;;4.70;;
55931;SDS011;41837;55.700;37.984;2023-07-13T12:07:51;8.10;;;4.30;;
55931;SDS011;41837;55.700;37.984;2023-07-13T12:10:26;9.88;;;4.57;;
55931;SDS011;41837;55.700;37.984;2023-07-13T12:13:00;7.68;;;4.30;;
55931;SDS011;41837;55.700;37.984;2023-07-13T12:18:19;9.70;;;4.55;;
55931;SDS011;41837;55.700;37.984;2023-07-13T12:20:49;10.00;;;4.72;;
55931;SDS011;41837;55.700;37.984;2023-07-13T12:25:54;11.88;;;5.57;;
55931;SDS011;41837;55.700;37.984;2023-07-13T12:28:21;11.55;;;5.40;;
55931;SDS011;41837;55.700;37.984;2023-07-13T12:33:57;14.75;;;6.05;;
55931;SDS011;41837;55.700;37.984;2023-07-13T12:36:26;11.27;;;5.22;;
55931;SDS011;41837;55.700;37.984;2023-07-13T12:38:56;10.73;;;5.55;;
55931;SDS011;41837;55.700;37.984;2023-07-13T12:41:30;9.15;;;5.55;;
55931;SDS011;41837;55.700;37.984;2023-07-13T12:43:57;10.63;;;5.55;;
55931;SDS011;41837;55.700;37.984;2023-07-13T12:46:24;12.30;;;5.45;;
55931;SDS011;41837;55.700;37.984;2023-07-13T12:48:56;15.65;;;6.40;;
55931;SDS011;41837;55.700;37.984;2023-07-13T12:51:25;8.40;;;4.88;;
55931;SDS011;41837;55.700;37.984;2023-07-13T12:56:44;11.75;;;5.85;;
55931;SDS011;41837;55.700;37.984;2023-07-13T12:59:17;10.82;;;5.53;;
55931;SDS011;41837;55.700;37.984;2023-07-13T13:01:46;13.82;;;6.28;;
55931;SDS011;41837;55.700;37.984;2023-07-13T13:04:15;9.55;;;5.55;;
55931;SDS011;41837;55.700;37.984;2023-07-13T13:06:42;13.52;;;5.72;;
55931;SDS011;41837;55.700;37.984;2023-07-13T13:09:11;10.18;;;5.30;;
55931;SDS011;41837;55.700;37.984;2023-07-13T13:11:39;14.23;;;6.35;;
55931;SDS011;41837;55.700;37.984;2023-07-13T13:14:07;10.40;;;4.88;;
55931;SDS011;41837;55.700;37.984;2023-07-13T13:16:46;9.77;;;5.13;;
55931;SDS011;41837;55.700;37.984;2023-07-13T13:19:20;17.33;;;4.57;;
55931;SDS011;41837;55.700;37.984;2023-07-13T13:21:49;9.85;;;4.30;;
55931;SDS011;41837;55.700;37.984;2023-07-13T13:24:21;9.80;;;4.68;;
55931;SDS011;41837;55.700;37.984;2023-07-13T13:26:50;8.63;;;4.90;;
55931;SDS011;41837;55.700;37.984;2023-07-13T13:29:20;8.35;;;4.28;;
55931;SDS011;41837;55.700;37.984;2023-07-13T13:31:50;11.65;;;5.45;;
55931;SDS011;41837;55.700;37.984;2023-07-13T13:34:18;9.82;;;5.90;;
55931;SDS011;41837;55.700;37.984;2023-07-13T13:36:46;9.45;;;5.40;;
55931;SDS011;41837;55.700;37.984;2023-07-13T13:39:18;6.80;;;4.70;;
55931;SDS011;41837;55.700;37.984;2023-07-13T13:41:48;9.57;;;4.68;;
55931;SDS011;41837;55.700;37.984;2023-07-13T13:44:16;14.98;;;5.55;;
55931;SDS011;41837;55.700;37.984;2023-07-13T13:46:44;11.10;;;6.82;;
55931;SDS011;41837;55.700;37.984;2023-07-13T13:49:16;13.68;;;7.80;;
55931;SDS011;41837;55.700;37.984;2023-07-13T13:51:46;16.73;;;8.35;;
55931;SDS011;41837;55.700;37.984;2023-07-13T13:54:14;12.57;;;6.50;;
55931;SDS011;41837;55.700;37.984;2023-07-13T13:56:43;15.93;;;7.70;;
55931;SDS011;41837;55.700;37.984;2023-07-13T13:59:10;12.68;;;5.60;;
55931;SDS011;41837;55.700;37.984;2023-07-13T14:01:37;10.43;;;5.78;;
55931;SDS011;41837;55.700;37.984;2023-07-13T14:04:04;14.45;;;6.82;;
55931;SDS011;41837;55.700;37.984;2023-07-13T14:06:31;9.00;;;4.95;;
55931;SDS011;41837;55.700;37.984;2023-07-13T14:09:00;11.85;;;6.00;;
55931;SDS011;41837;55.700;37.984;2023-07-13T14:11:26;11.02;;;5.80;;
55931;SDS011;41837;55.700;37.984;2023-07-13T14:13:54;9.45;;;5.10;;
55931;SDS011;41837;55.700;37.984;2023-07-13T14:16:25;11.95;;;6.35;;
55931;SDS011;41837;55.700;37.984;2023-07-13T14:18:55;19.13;;;6.75;;
55931;SDS011;41837;55.700;37.984;2023-07-13T14:21:24;12.55;;;5.97;;
55931;SDS011;41837;55.700;37.984;2023-07-13T14:23:50;10.13;;;5.38;;
55931;SDS011;41837;55.700;37.984;2023-07-13T14:26:18;11.75;;;5.22;;
55931;SDS011;41837;55.700;37.984;2023-07-13T14:28:47;9.35;;;5.20;;
55931;SDS011;41837;55.700;37.984;2023-07-13T14:31:16;12.75;;;6.70;;
55931;SDS011;41837;55.700;37.984;2023-07-13T14:33:44;10.68;;;5.45;;
55931;SDS011;41837;55.700;37.984;2023-07-13T14:39:36;10.95;;;5.70;;
55931;SDS011;41837;55.700;37.984;2023-07-13T14:41:55;12.25;;;5.63;;
55931;SDS011;41837;55.700;37.984;2023-07-13T14:44:26;11.32;;;5.03;;
55931;SDS011;41837;55.700;37.984;2023-07-13T14:46:55;13.90;;;5.18;;
55931;SDS011;41837;55.700;37.984;2023-07-13T14:51:56;13.88;;;5.20;;
55931;SDS011;41837;55.700;37.984;2023-07-13T14:54:24;11.90;;;5.60;;
55931;SDS011;41837;55.700;37.984;2023-07-13T14:56:53;11.70;;;5.47;;
55931;SDS011;41837;55.700;37.984;2023-07-13T14:59:19;11.63;;;6.55;;
55931;SDS011;41837;55.700;37.984;2023-07-13T15:01:45;14.82;;;6.38;;
55931;SDS011;41837;55.700;37.984;2023-07-13T15:04:15;17.40;;;7.18;;
55931;SDS011;41837;55.700;37.984;2023-07-13T15:06:52;12.45;;;7.20;;
55931;SDS011;41837;55.700;37.984;2023-07-13T15:09:19;9.65;;;6.60;;
55931;SDS011;41837;55.700;37.984;2023-07-13T15:11:45;14.90;;;6.13;;
55931;SDS011;41837;55.700;37.984;2023-07-13T15:14:11;10.60;;;5.45;;
55931;SDS011;41837;55.700;37.984;2023-07-13T15:16:38;12.73;;;5.93;;
55931;SDS011;41837;55.700;37.984;2023-07-13T15:19:04;8.70;;;5.03;;
55931;SDS011;41837;55.700;37.984;2023-07-13T15:21:30;10.82;;;5.00;;
55931;SDS011;41837;55.700;37.984;2023-07-13T15:24:00;8.60;;;4.78;;
55931;SDS011;41837;55.700;37.984;2023-07-13T15:26:27;11.85;;;4.78;;
55931;SDS011;41837;55.700;37.984;2023-07-13T15:28:53;11.07;;;5.07;;
55931;SDS011;41837;55.700;37.984;2023-07-13T15:31:22;11.45;;;4.63;;
55931;SDS011;41837;55.700;37.984;2023-07-13T15:33:50;9.27;;;4.57;;